sensor_id;sensor_type;location;lat;lon;timestamp;P1;durP1;ratioP1;P2;durP2;ratioP2
3591;SDS011;1810;48.720;9.094;2023-06-14T00:01:04;799.83;;;748.03;;
3591;SDS011;1810;48.720;9.094;2023-06-14T00:03:34;762.85;;;713.72;;
3591;SDS011;1810;48.720;9.094;2023-06-14T00:06:03;785.80;;;735.30;;
3591;SDS011;1810;48.720;9.094;2023-06-14T00:08:32;774.67;;;724.83;;
3591;SDS011;1810;48.720;9.094;2023-06-14T00:11:00;773.55;;;723.97;;
3591;SDS011;1810;48.720;9.094;2023-06-14T00:13:29;769.60;;;720.28;;
3591;SDS011;1810;48.720;9.094;2023-06-14T00:15:57;772.45;;;722.97;;
3591;SDS011;1810;48.720;9.094;2023-06-14T00:18:26;780.00;;;730.17;;
3591;SDS011;1810;48.720;9.094;2023-06-14T00:20:57;776.65;;;726.90;;
3591;SDS011;1810;48.720;9.094;2023-06-14T00:23:25;764.40;;;716.03;;
3591;SDS011;1810;48.720;9.094;2023-06-14T00:25:54;759.55;;;711.50;;
3591;SDS011;1810;48.720;9.094;2023-06-14T00:28:23;763.45;;;714.67;;
3591;SDS011;1810;48.720;9.094;2023-06-14T00:30:51;769.55;;;721.10;;
3591;SDS011;1810;48.720;9.094;2023-06-14T00:33:19;749.42;;;702.10;;
3591;SDS011;1810;48.720;9.094;2023-06-14T00:35:48;725.47;;;680.72;;
3591;SDS011;1810;48.720;9.094;2023-06-14T00:38:18;690.58;;;649.40;;
3591;SDS011;1810;48.720;9.094;2023-06-14T00:40:46;696.55;;;654.78;;
3591;SDS011;1810;48.720;9.094;2023-06-14T00:43:15;706.65;;;664.33;;
3591;SDS011;1810;48.720;9.094;2023-06-14T00:45:43;704.42;;;662.40;;
3591;SDS011;1810;48.720;9.094;2023-06-14T00:48:12;678.10;;;638.47;;
3591;SDS011;1810;48.720;9.094;2023-06-14T00:50:41;693.67;;;651.85;;
3591;SDS011;1810;48.720;9.094;2023-06-14T00:53:12;695.63;;;654.08;;
3591;SDS011;1810;48.720;9.094;2023-06-14T00:55:42;652.95;;;616.08;;
3591;SDS011;1810;48.720;9.094;2023-06-14T00:58:11;657.47;;;619.97;;
3591;SDS011;1810;48.720;9.094;2023-06-14T01:00:39;676.05;;;636.33;;
3591;SDS011;1810;48.720;9.094;2023-06-14T01:03:08;686.25;;;645.80;;
3591;SDS011;1810;48.720;9.094;2023-06-14T01:05:40;666.72;;;628.40;;
3591;SDS011;1810;48.720;9.094;2023-06-14T01:08:13;676.20;;;636.75;;
3591;SDS011;1810;48.720;9.094;2023-06-14T01:10:56;693.13;;;651.17;;
3591;SDS011;1810;48.720;9.094;2023-06-14T01:13:32;709.10;;;665.97;;
3591;SDS011;1810;48.720;9.094;2023-06-14T01:16:02;668.30;;;629.53;;
3591;SDS011;1810;48.720;9.094;2023-06-14T01:18:31;659.40;;;621.58;;
3591;SDS011;1810;48.720;9.094;2023-06-14T01:21:00;642.13;;;606.05;;
3591;SDS011;1810;48.720;9.094;2023-06-14T01:23:33;645.67;;;608.92;;
3591;SDS011;1810;48.720;9.094;2023-06-14T01:26:01;627.47;;;593.15;;
3591;SDS011;1810;48.720;9.094;2023-06-14T01:28:31;636.40;;;600.97;;
3591;SDS011;1810;48.720;9.094;2023-06-14T01:31:01;631.35;;;596.15;;
3591;SDS011;1810;48.720;9.094;2023-06-14T01:33:31;645.35;;;609.08;;
3591;SDS011;1810;48.720;9.094;2023-06-14T01:36:01;626.25;;;591.80;;
3591;SDS011;1810;48.720;9.094;2023-06-14T01:38:30;647.97;;;610.67;;
3591;SDS011;1810;48.720;9.094;2023-06-14T01:41:01;618.58;;;584.33;;
3591;SDS011;1810;48.720;9.094;2023-06-14T01:43:30;639.20;;;603.50;;
3591;SDS011;1810;48.720;9.094;2023-06-14T01:45:59;633.53;;;598.33;;
3591;SDS011;1810;48.720;9.094;2023-06-14T01:48:28;660.08;;;622.25;;
3591;SDS011;1810;48.720;9.094;2023-06-14T01:50:56;643.03;;;607.63;;
3591;SDS011;1810;48.720;9.094;2023-06-14T01:53:25;658.05;;;620.83;;
3591;SDS011;1810;48.720;9.094;2023-06-14T01:55:55;624.53;;;590.08;;
3591;SDS011;1810;48.720;9.094;2023-06-14T01:58:24;631.33;;;596.03;;
3591;SDS011;1810;48.720;9.094;2023-06-14T02:00:52;668.03;;;629.92;;
3591;SDS011;1810;48.720;9.094;2023-06-14T02:03:23;669.40;;;630.63;;
3591;SDS011;1810;48.720;9.094;2023-06-14T02:05:51;672.10;;;633.17;;
3591;SDS011;1810;48.720;9.094;2023-06-14T02:08:20;706.10;;;663.95;;
3591;SDS011;1810;48.720;9.094;2023-06-14T02:10:50;666.38;;;627.97;;
3591;SDS011;1810;48.720;9.094;2023-06-14T02:13:20;635.15;;;600.22;;
3591;SDS011;1810;48.720;9.094;2023-06-14T02:15:48;661.17;;;623.67;;
3591;SDS011;1810;48.720;9.094;2023-06-14T02:18:21;656.75;;;619.45;;
3591;SDS011;1810;48.720;9.094;2023-06-14T02:20:50;637.75;;;602.00;;
3591;SDS011;1810;48.720;9.094;2023-06-14T02:23:18;678.00;;;638.80;;
3591;SDS011;1810;48.720;9.094;2023-06-14T02:25:47;659.05;;;621.75;;
3591;SDS011;1810;48.720;9.094;2023-06-14T02:28:15;661.28;;;623.55;;
3591;SDS011;1810;48.720;9.094;2023-06-14T02:30:45;670.45;;;632.40;;
3591;SDS011;1810;48.720;9.094;2023-06-14T02:33:14;683.42;;;643.47;;
3591;SDS011;1810;48.720;9.094;2023-06-14T02:35:44;639.05;;;603.78;;
3591;SDS011;1810;48.720;9.094;2023-06-14T02:38:12;712.65;;;669.35;;
3591;SDS011;1810;48.720;9.094;2023-06-14T02:40:41;670.75;;;632.33;;
3591;SDS011;1810;48.720;9.094;2023-06-14T02:43:09;677.88;;;638.88;;
3591;SDS011;1810;48.720;9.094;2023-06-14T02:45:38;664.03;;;626.28;;
3591;SDS011;1810;48.720;9.094;2023-06-14T02:48:08;664.03;;;626.03;;
3591;SDS011;1810;48.720;9.094;2023-06-14T02:50:37;687.75;;;648.08;;
3591;SDS011;1810;48.720;9.094;2023-06-14T02:53:06;680.15;;;640.95;;
3591;SDS011;1810;48.720;9.094;2023-06-14T02:55:34;673.33;;;634.30;;
3591;SDS011;1810;48.720;9.094;2023-06-14T02:58:06;657.65;;;620.17;;
3591;SDS011;1810;48.720;9.094;2023-06-14T03:00:35;672.80;;;633.72;;
3591;SDS011;1810;48.720;9.094;2023-06-14T03:03:05;672.97;;;634.55;;
3591;SDS011;1810;48.720;9.094;2023-06-14T03:05:41;676.17;;;637.22;;
3591;SDS011;1810;48.720;9.094;2023-06-14T03:08:12;678.30;;;639.33;;
3591;SDS011;1810;48.720;9.094;2023-06-14T03:10:43;681.30;;;641.53;;
3591;SDS011;1810;48.720;9.094;2023-06-14T03:13:11;635.25;;;599.60;;
3591;SDS011;1810;48.720;9.094;2023-06-14T03:15:40;667.17;;;628.88;;
3591;SDS011;1810;48.720;9.094;2023-06-14T03:18:12;622.97;;;587.97;;
3591;SDS011;1810;48.720;9.094;2023-06-14T03:20:41;608.08;;;575.03;;
3591;SDS011;1810;48.720;9.094;2023-06-14T03:23:12;656.72;;;619.38;;
3591;SDS011;1810;48.720;9.094;2023-06-14T03:25:40;665.78;;;627.25;;
3591;SDS011;1810;48.720;9.094;2023-06-14T03:28:09;630.75;;;595.90;;
3591;SDS011;1810;48.720;9.094;2023-06-14T03:30:37;709.83;;;667.10;;
3591;SDS011;1810;48.720;9.094;2023-06-14T03:33:06;652.17;;;615.20;;
3591;SDS011;1810;48.720;9.094;2023-06-14T03:35:36;652.63;;;615.75;;
3591;SDS011;1810;48.720;9.094;2023-06-14T03:38:04;627.08;;;592.10;;
3591;SDS011;1810;48.720;9.094;2023-06-14T03:40:33;668.22;;;629.35;;
3591;SDS011;1810;48.720;9.094;2023-06-14T03:43:02;615.22;;;581.80;;
3591;SDS011;1810;48.720;9.094;2023-06-14T03:45:30;637.50;;;601.67;;
3591;SDS011;1810;48.720;9.094;2023-06-14T03:47:58;666.10;;;627.97;;
3591;SDS011;1810;48.720;9.094;2023-06-14T03:50:28;686.03;;;646.20;;
3591;SDS011;1810;48.720;9.094;2023-06-14T03:52:58;676.88;;;637.90;;
3591;SDS011;1810;48.720;9.094;2023-06-14T03:55:28;665.25;;;627.20;;
3591;SDS011;1810;48.720;9.094;2023-06-14T03:58:00;665.63;;;627.33;;
3591;SDS011;1810;48.720;9.094;2023-06-14T04:00:28;659.75;;;622.13;;
3591;SDS011;1810;48.720;9.094;2023-06-14T04:02:58;659.75;;;621.97;;
3591;SDS011;1810;48.720;9.094;2023-06-14T04:05:27;643.70;;;607.70;;
3591;SDS011;1810;48.720;9.094;2023-06-14T04:07:56;624.65;;;590.33;;
3591;SDS011;1810;48.720;9.094;2023-06-14T04:10:27;649.05;;;612.63;;
3591;SDS011;1810;48.720;9.094;2023-06-14T04:12:55;686.15;;;646.45;;
3591;SDS011;1810;48.720;9.094;2023-06-14T04:15:24;644.15;;;608.17;;
3591;SDS011;1810;48.720;9.094;2023-06-14T04:17:54;643.33;;;607.38;;
3591;SDS011;1810;48.720;9.094;2023-06-14T04:20:32;627.83;;;593.33;;
3591;SDS011;1810;48.720;9.094;2023-06-14T04:23:12;742.00;;;695.85;;
3591;SDS011;1810;48.720;9.094;2023-06-14T04:25:43;740.90;;;694.70;;
3591;SDS011;1810;48.720;9.094;2023-06-14T04:28:17;769.80;;;720.58;;
3591;SDS011;1810;48.720;9.094;2023-06-14T04:30:55;773.85;;;724.08;;
3591;SDS011;1810;48.720;9.094;2023-06-14T04:33:28;799.63;;;747.17;;
3591;SDS011;1810;48.720;9.094;2023-06-14T04:36:10;822.97;;;768.25;;
3591;SDS011;1810;48.720;9.094;2023-06-14T04:38:42;719.05;;;674.75;;
3591;SDS011;1810;48.720;9.094;2023-06-14T04:41:12;687.20;;;646.50;;
3591;SDS011;1810;48.720;9.094;2023-06-14T04:43:43;635.78;;;600.13;;
3591;SDS011;1810;48.720;9.094;2023-06-14T04:46:15;616.80;;;582.75;;
3591;SDS011;1810;48.720;9.094;2023-06-14T04:48:45;604.45;;;571.20;;
3591;SDS011;1810;48.720;9.094;2023-06-14T04:51:15;605.20;;;571.92;;
3591;SDS011;1810;48.720;9.094;2023-06-14T04:53:48;592.95;;;560.65;;
3591;SDS011;1810;48.720;9.094;2023-06-14T04:56:17;588.08;;;556.25;;
3591;SDS011;1810;48.720;9.094;2023-06-14T04:58:45;604.42;;;570.75;;
3591;SDS011;1810;48.720;9.094;2023-06-14T05:01:14;646.85;;;610.05;;
3591;SDS011;1810;48.720;9.094;2023-06-14T05:03:42;622.90;;;587.65;;
3591;SDS011;1810;48.720;9.094;2023-06-14T05:06:12;626.65;;;591.35;;
3591;SDS011;1810;48.720;9.094;2023-06-14T05:08:40;639.30;;;603.25;;
3591;SDS011;1810;48.720;9.094;2023-06-14T05:11:11;629.58;;;594.00;;
3591;SDS011;1810;48.720;9.094;2023-06-14T05:13:39;639.03;;;602.85;;
3591;SDS011;1810;48.720;9.094;2023-06-14T05:16:08;641.03;;;604.28;;
3591;SDS011;1810;48.720;9.094;2023-06-14T05:18:37;666.92;;;627.42;;
3591;SDS011;1810;48.720;9.094;2023-06-14T05:21:06;652.45;;;614.47;;
3591;SDS011;1810;48.720;9.094;2023-06-14T05:23:35;644.88;;;607.45;;
3591;SDS011;1810;48.720;9.094;2023-06-14T05:26:03;631.90;;;595.80;;
3591;SDS011;1810;48.720;9.094;2023-06-14T05:28:36;713.75;;;669.40;;
3591;SDS011;1810;48.720;9.094;2023-06-14T05:31:07;659.17;;;620.47;;
3591;SDS011;1810;48.720;9.094;2023-06-14T05:33:35;635.33;;;599.13;;
3591;SDS011;1810;48.720;9.094;2023-06-14T05:36:07;620.08;;;585.47;;
3591;SDS011;1810;48.720;9.094;2023-06-14T05:38:36;600.50;;;567.58;;
3591;SDS011;1810;48.720;9.094;2023-06-14T05:41:05;644.90;;;607.85;;
3591;SDS011;1810;48.720;9.094;2023-06-14T05:43:34;635.63;;;599.13;;
3591;SDS011;1810;48.720;9.094;2023-06-14T05:46:05;576.50;;;545.65;;
3591;SDS011;1810;48.720;9.094;2023-06-14T05:48:33;568.45;;;537.92;;
3591;SDS011;1810;48.720;9.094;2023-06-14T05:51:02;473.70;;;450.58;;
3591;SDS011;1810;48.720;9.094;2023-06-14T05:53:30;467.73;;;444.88;;
3591;SDS011;1810;48.720;9.094;2023-06-14T05:55:59;457.08;;;435.05;;
3591;SDS011;1810;48.720;9.094;2023-06-14T05:58:28;503.48;;;477.80;;
3591;SDS011;1810;48.720;9.094;2023-06-14T06:00:57;534.72;;;506.20;;
3591;SDS011;1810;48.720;9.094;2023-06-14T06:03:27;458.27;;;435.98;;
3591;SDS011;1810;48.720;9.094;2023-06-14T06:05:56;417.95;;;398.40;;
3591;SDS011;1810;48.720;9.094;2023-06-14T06:08:25;457.67;;;435.45;;
3591;SDS011;1810;48.720;9.094;2023-06-14T06:10:53;412.88;;;393.63;;
3591;SDS011;1810;48.720;9.094;2023-06-14T06:13:22;414.58;;;395.17;;
3591;SDS011;1810;48.720;9.094;2023-06-14T06:15:51;384.50;;;366.92;;
3591;SDS011;1810;48.720;9.094;2023-06-14T06:18:20;325.35;;;311.25;;
3591;SDS011;1810;48.720;9.094;2023-06-14T06:20:49;260.40;;;249.60;;
3591;SDS011;1810;48.720;9.094;2023-06-14T06:23:17;240.55;;;230.70;;
3591;SDS011;1810;48.720;9.094;2023-06-14T06:25:46;222.00;;;212.82;;
3591;SDS011;1810;48.720;9.094;2023-06-14T06:28:14;248.40;;;238.13;;
3591;SDS011;1810;48.720;9.094;2023-06-14T06:30:44;306.17;;;293.13;;
3591;SDS011;1810;48.720;9.094;2023-06-14T06:33:12;405.98;;;387.10;;
3591;SDS011;1810;48.720;9.094;2023-06-14T06:35:42;437.17;;;416.08;;
3591;SDS011;1810;48.720;9.094;2023-06-14T06:38:11;469.42;;;446.33;;
3591;SDS011;1810;48.720;9.094;2023-06-14T06:40:40;484.02;;;460.23;;
3591;SDS011;1810;48.720;9.094;2023-06-14T06:43:08;507.45;;;482.10;;
3591;SDS011;1810;48.720;9.094;2023-06-14T06:45:39;542.80;;;514.80;;
3591;SDS011;1810;48.720;9.094;2023-06-14T06:48:08;582.85;;;551.65;;
3591;SDS011;1810;48.720;9.094;2023-06-14T06:50:36;647.25;;;610.35;;
3591;SDS011;1810;48.720;9.094;2023-06-14T06:53:06;688.85;;;647.22;;
3591;SDS011;1810;48.720;9.094;2023-06-14T06:55:35;755.47;;;707.17;;
3591;SDS011;1810;48.720;9.094;2023-06-14T06:58:03;816.28;;;761.97;;
3591;SDS011;1810;48.720;9.094;2023-06-14T07:00:32;830.85;;;775.08;;
3591;SDS011;1810;48.720;9.094;2023-06-14T07:03:01;826.28;;;770.95;;
3591;SDS011;1810;48.720;9.094;2023-06-14T07:05:30;866.63;;;807.85;;
3591;SDS011;1810;48.720;9.094;2023-06-14T07:07:59;841.95;;;785.38;;
3591;SDS011;1810;48.720;9.094;2023-06-14T07:10:28;941.42;;;870.10;;
3591;SDS011;1810;48.720;9.094;2023-06-14T07:12:57;867.47;;;808.10;;
3591;SDS011;1810;48.720;9.094;2023-06-14T07:15:25;841.58;;;784.97;;
3591;SDS011;1810;48.720;9.094;2023-06-14T07:17:54;923.17;;;855.72;;
3591;SDS011;1810;48.720;9.094;2023-06-14T07:20:26;842.80;;;785.88;;
3591;SDS011;1810;48.720;9.094;2023-06-14T07:22:54;853.90;;;796.00;;
3591;SDS011;1810;48.720;9.094;2023-06-14T07:25:23;855.17;;;797.03;;
3591;SDS011;1810;48.720;9.094;2023-06-14T07:27:53;852.92;;;794.70;;
3591;SDS011;1810;48.720;9.094;2023-06-14T07:30:21;855.17;;;796.90;;
3591;SDS011;1810;48.720;9.094;2023-06-14T07:32:52;813.45;;;759.03;;
3591;SDS011;1810;48.720;9.094;2023-06-14T07:35:21;817.53;;;762.83;;
3591;SDS011;1810;48.720;9.094;2023-06-14T07:37:49;810.33;;;756.17;;
3591;SDS011;1810;48.720;9.094;2023-06-14T07:40:18;803.25;;;750.00;;
3591;SDS011;1810;48.720;9.094;2023-06-14T07:42:47;821.83;;;766.88;;
3591;SDS011;1810;48.720;9.094;2023-06-14T07:45:18;923.70;;;855.40;;
3591;SDS011;1810;48.720;9.094;2023-06-14T07:47:46;835.15;;;778.92;;
3591;SDS011;1810;48.720;9.094;2023-06-14T07:50:15;806.90;;;753.63;;
3591;SDS011;1810;48.720;9.094;2023-06-14T07:52:43;764.00;;;714.97;;
3591;SDS011;1810;48.720;9.094;2023-06-14T07:55:13;757.95;;;708.72;;
3591;SDS011;1810;48.720;9.094;2023-06-14T07:57:42;796.40;;;744.45;;
3591;SDS011;1810;48.720;9.094;2023-06-14T08:00:12;777.70;;;727.47;;
3591;SDS011;1810;48.720;9.094;2023-06-14T08:02:43;806.53;;;753.33;;
3591;SDS011;1810;48.720;9.094;2023-06-14T08:05:12;742.28;;;694.53;;
3591;SDS011;1810;48.720;9.094;2023-06-14T08:07:41;742.40;;;695.50;;
3591;SDS011;1810;48.720;9.094;2023-06-14T08:10:10;754.55;;;705.97;;
3591;SDS011;1810;48.720;9.094;2023-06-14T08:12:39;820.63;;;764.92;;
3591;SDS011;1810;48.720;9.094;2023-06-14T08:15:08;782.63;;;730.83;;
3591;SDS011;1810;48.720;9.094;2023-06-14T08:17:40;792.85;;;740.83;;
3591;SDS011;1810;48.720;9.094;2023-06-14T08:20:11;786.05;;;734.40;;
3591;SDS011;1810;48.720;9.094;2023-06-14T08:22:43;824.72;;;769.60;;
3591;SDS011;1810;48.720;9.094;2023-06-14T08:25:13;792.47;;;740.22;;
3591;SDS011;1810;48.720;9.094;2023-06-14T08:27:42;828.55;;;772.70;;
3591;SDS011;1810;48.720;9.094;2023-06-14T08:30:11;781.28;;;730.35;;
3591;SDS011;1810;48.720;9.094;2023-06-14T08:32:40;807.97;;;754.00;;
3591;SDS011;1810;48.720;9.094;2023-06-14T08:35:10;824.70;;;769.00;;
3591;SDS011;1810;48.720;9.094;2023-06-14T08:37:40;820.75;;;766.22;;
3591;SDS011;1810;48.720;9.094;2023-06-14T08:40:13;830.75;;;775.17;;
3591;SDS011;1810;48.720;9.094;2023-06-14T08:42:48;881.95;;;821.22;;
3591;SDS011;1810;48.720;9.094;2023-06-14T08:45:19;840.65;;;783.80;;
3591;SDS011;1810;48.720;9.094;2023-06-14T08:47:53;809.60;;;755.67;;
3591;SDS011;1810;48.720;9.094;2023-06-14T08:50:27;822.83;;;767.95;;
3591;SDS011;1810;48.720;9.094;2023-06-14T08:53:00;816.92;;;763.08;;
3591;SDS011;1810;48.720;9.094;2023-06-14T08:55:30;822.47;;;767.60;;
3591;SDS011;1810;48.720;9.094;2023-06-14T08:58:03;806.78;;;753.17;;
3591;SDS011;1810;48.720;9.094;2023-06-14T09:00:35;849.00;;;790.65;;
3591;SDS011;1810;48.720;9.094;2023-06-14T09:03:09;798.90;;;746.50;;
3591;SDS011;1810;48.720;9.094;2023-06-14T09:05:40;778.88;;;727.55;;
3591;SDS011;1810;48.720;9.094;2023-06-14T09:08:09;793.53;;;740.58;;
3591;SDS011;1810;48.720;9.094;2023-06-14T09:10:37;889.67;;;825.45;;
3591;SDS011;1810;48.720;9.094;2023-06-14T09:13:08;790.28;;;738.38;;
3591;SDS011;1810;48.720;9.094;2023-06-14T09:15:36;771.42;;;721.20;;
3591;SDS011;1810;48.720;9.094;2023-06-14T09:18:05;812.92;;;758.85;;
3591;SDS011;1810;48.720;9.094;2023-06-14T09:20:41;793.90;;;741.78;;
3591;SDS011;1810;48.720;9.094;2023-06-14T09:23:09;808.80;;;755.17;;
3591;SDS011;1810;48.720;9.094;2023-06-14T09:25:42;865.30;;;805.88;;
3591;SDS011;1810;48.720;9.094;2023-06-14T09:28:11;769.60;;;719.67;;
3591;SDS011;1810;48.720;9.094;2023-06-14T09:30:40;820.70;;;766.38;;
3591;SDS011;1810;48.720;9.094;2023-06-14T09:33:09;832.17;;;775.78;;
3591;SDS011;1810;48.720;9.094;2023-06-14T09:35:38;867.85;;;805.97;;
3591;SDS011;1810;48.720;9.094;2023-06-14T09:38:11;839.00;;;781.85;;
3591;SDS011;1810;48.720;9.094;2023-06-14T09:40:41;827.13;;;771.40;;
3591;SDS011;1810;48.720;9.094;2023-06-14T09:43:10;829.65;;;774.00;;
3591;SDS011;1810;48.720;9.094;2023-06-14T09:45:39;852.72;;;795.05;;
3591;SDS011;1810;48.720;9.094;2023-06-14T09:48:11;858.35;;;799.83;;
3591;SDS011;1810;48.720;9.094;2023-06-14T09:50:46;842.35;;;786.00;;
3591;SDS011;1810;48.720;9.094;2023-06-14T09:53:15;882.75;;;821.40;;
3591;SDS011;1810;48.720;9.094;2023-06-14T09:55:43;886.72;;;824.85;;
3591;SDS011;1810;48.720;9.094;2023-06-14T09:58:13;845.92;;;788.85;;
3591;SDS011;1810;48.720;9.094;2023-06-14T10:00:42;921.25;;;853.03;;
3591;SDS011;1810;48.720;9.094;2023-06-14T10:03:12;856.85;;;798.97;;
3591;SDS011;1810;48.720;9.094;2023-06-14T10:05:43;855.90;;;797.95;;
3591;SDS011;1810;48.720;9.094;2023-06-14T10:08:15;842.58;;;785.92;;
3591;SDS011;1810;48.720;9.094;2023-06-14T10:10:45;844.20;;;787.80;;
3591;SDS011;1810;48.720;9.094;2023-06-14T10:13:14;854.80;;;796.92;;
3591;SDS011;1810;48.720;9.094;2023-06-14T10:15:46;847.30;;;790.35;;
3591;SDS011;1810;48.720;9.094;2023-06-14T10:18:22;814.33;;;760.67;;
3591;SDS011;1810;48.720;9.094;2023-06-14T10:20:58;828.22;;;773.00;;
3591;SDS011;1810;48.720;9.094;2023-06-14T10:23:36;794.90;;;742.85;;
3591;SDS011;1810;48.720;9.094;2023-06-14T10:26:07;814.53;;;760.22;;
3591;SDS011;1810;48.720;9.094;2023-06-14T10:28:36;816.58;;;762.33;;
3591;SDS011;1810;48.720;9.094;2023-06-14T10:31:09;826.55;;;771.67;;
3591;SDS011;1810;48.720;9.094;2023-06-14T10:36:28;778.80;;;728.20;;
3591;SDS011;1810;48.720;9.094;2023-06-14T10:39:10;854.10;;;794.65;;
3591;SDS011;1810;48.720;9.094;2023-06-14T10:41:50;820.55;;;765.55;;
3591;SDS011;1810;48.720;9.094;2023-06-14T10:44:41;784.50;;;733.70;;
3591;SDS011;1810;48.720;9.094;2023-06-14T10:47:48;798.15;;;745.53;;
3591;SDS011;1810;48.720;9.094;2023-06-14T10:52:03;793.70;;;742.08;;
3591;SDS011;1810;48.720;9.094;2023-06-14T11:10:07;773.65;;;723.00;;
3591;SDS011;1810;48.720;9.094;2023-06-14T11:13:11;724.75;;;679.22;;
3591;SDS011;1810;48.720;9.094;2023-06-14T11:16:16;707.88;;;664.03;;
3591;SDS011;1810;48.720;9.094;2023-06-14T11:54:18;762.45;;;713.35;;
3591;SDS011;1810;48.720;9.094;2023-06-14T11:56:57;796.00;;;743.50;;
3591;SDS011;1810;48.720;9.094;2023-06-14T11:59:55;797.50;;;745.33;;
3591;SDS011;1810;48.720;9.094;2023-06-14T12:02:24;774.63;;;724.13;;
3591;SDS011;1810;48.720;9.094;2023-06-14T12:12:16;776.63;;;726.42;;
3591;SDS011;1810;48.720;9.094;2023-06-14T12:14:46;820.55;;;766.30;;
3591;SDS011;1810;48.720;9.094;2023-06-14T12:17:17;797.55;;;745.20;;
3591;SDS011;1810;48.720;9.094;2023-06-14T12:19:46;840.15;;;782.65;;
3591;SDS011;1810;48.720;9.094;2023-06-14T12:22:16;799.90;;;747.10;;
3591;SDS011;1810;48.720;9.094;2023-06-14T12:24:47;809.75;;;756.53;;
3591;SDS011;1810;48.720;9.094;2023-06-14T12:27:18;813.33;;;759.95;;
3591;SDS011;1810;48.720;9.094;2023-06-14T12:29:58;823.90;;;768.97;;
3591;SDS011;1810;48.720;9.094;2023-06-14T12:32:28;806.63;;;753.85;;
3591;SDS011;1810;48.720;9.094;2023-06-14T12:34:56;770.05;;;720.38;;
3591;SDS011;1810;48.720;9.094;2023-06-14T12:37:25;795.65;;;743.70;;
3591;SDS011;1810;48.720;9.094;2023-06-14T12:39:54;776.28;;;726.13;;
3591;SDS011;1810;48.720;9.094;2023-06-14T12:42:24;793.17;;;741.38;;
3591;SDS011;1810;48.720;9.094;2023-06-14T12:44:54;742.03;;;694.70;;
3591;SDS011;1810;48.720;9.094;2023-06-14T12:47:22;796.35;;;744.10;;
3591;SDS011;1810;48.720;9.094;2023-06-14T12:49:51;879.53;;;818.90;;
3591;SDS011;1810;48.720;9.094;2023-06-14T12:52:19;755.25;;;706.97;;
3591;SDS011;1810;48.720;9.094;2023-06-14T12:54:48;782.35;;;731.53;;
3591;SDS011;1810;48.720;9.094;2023-06-14T12:57:19;778.60;;;728.40;;
3591;SDS011;1810;48.720;9.094;2023-06-14T12:59:49;772.55;;;721.95;;
3591;SDS011;1810;48.720;9.094;2023-06-14T13:02:19;726.42;;;680.70;;
3591;SDS011;1810;48.720;9.094;2023-06-14T13:07:53;773.08;;;722.97;;
3591;SDS011;1810;48.720;9.094;2023-06-14T13:10:42;714.58;;;670.60;;
3591;SDS011;1810;48.720;9.094;2023-06-14T13:13:19;747.15;;;699.15;;
3591;SDS011;1810;48.720;9.094;2023-06-14T13:15:49;740.70;;;693.85;;
3591;SDS011;1810;48.720;9.094;2023-06-14T13:18:36;739.72;;;692.95;;
3591;SDS011;1810;48.720;9.094;2023-06-14T13:21:18;749.70;;;701.85;;
3591;SDS011;1810;48.720;9.094;2023-06-14T13:24:07;728.70;;;683.20;;
3591;SDS011;1810;48.720;9.094;2023-06-14T13:26:47;707.73;;;664.43;;
3591;SDS011;1810;48.720;9.094;2023-06-14T13:29:16;737.85;;;691.28;;
3591;SDS011;1810;48.720;9.094;2023-06-14T13:31:47;736.72;;;689.58;;
3591;SDS011;1810;48.720;9.094;2023-06-14T13:34:18;756.25;;;707.28;;
3591;SDS011;1810;48.720;9.094;2023-06-14T13:36:57;762.13;;;713.67;;
3591;SDS011;1810;48.720;9.094;2023-06-14T13:39:31;733.65;;;686.97;;
3591;SDS011;1810;48.720;9.094;2023-06-14T13:42:14;771.58;;;721.70;;
3591;SDS011;1810;48.720;9.094;2023-06-14T13:44:46;771.00;;;721.35;;
3591;SDS011;1810;48.720;9.094;2023-06-14T13:47:16;717.20;;;673.00;;
3591;SDS011;1810;48.720;9.094;2023-06-14T13:49:46;706.10;;;662.67;;
3591;SDS011;1810;48.720;9.094;2023-06-14T13:52:16;727.75;;;681.60;;
3591;SDS011;1810;48.720;9.094;2023-06-14T13:54:56;798.03;;;745.20;;
3591;SDS011;1810;48.720;9.094;2023-06-14T13:57:26;739.38;;;692.38;;
3591;SDS011;1810;48.720;9.094;2023-06-14T13:59:57;708.38;;;664.85;;
3591;SDS011;1810;48.720;9.094;2023-06-14T14:02:34;728.05;;;681.92;;
3591;SDS011;1810;48.720;9.094;2023-06-14T14:05:06;798.45;;;745.92;;
3591;SDS011;1810;48.720;9.094;2023-06-14T14:07:36;750.88;;;703.08;;
3591;SDS011;1810;48.720;9.094;2023-06-14T14:10:09;752.80;;;704.78;;
3591;SDS011;1810;48.720;9.094;2023-06-14T14:12:45;735.80;;;689.58;;
3591;SDS011;1810;48.720;9.094;2023-06-14T14:15:15;761.03;;;712.13;;
3591;SDS011;1810;48.720;9.094;2023-06-14T14:17:45;726.08;;;681.47;;
3591;SDS011;1810;48.720;9.094;2023-06-14T14:20:14;716.67;;;672.10;;
3591;SDS011;1810;48.720;9.094;2023-06-14T14:22:43;740.95;;;694.45;;
3591;SDS011;1810;48.720;9.094;2023-06-14T14:25:12;716.25;;;671.92;;
3591;SDS011;1810;48.720;9.094;2023-06-14T14:27:40;738.90;;;692.03;;
3591;SDS011;1810;48.720;9.094;2023-06-14T14:30:09;788.20;;;737.15;;
3591;SDS011;1810;48.720;9.094;2023-06-14T14:32:40;746.35;;;699.90;;
3591;SDS011;1810;48.720;9.094;2023-06-14T14:35:11;749.08;;;701.70;;
3591;SDS011;1810;48.720;9.094;2023-06-14T14:37:40;722.13;;;677.38;;
3591;SDS011;1810;48.720;9.094;2023-06-14T14:40:08;754.00;;;706.40;;
3591;SDS011;1810;48.720;9.094;2023-06-14T14:42:37;702.22;;;660.03;;
3591;SDS011;1810;48.720;9.094;2023-06-14T14:45:06;711.78;;;668.08;;
3591;SDS011;1810;48.720;9.094;2023-06-14T14:47:35;712.28;;;668.80;;
3591;SDS011;1810;48.720;9.094;2023-06-14T14:50:04;725.83;;;680.90;;
3591;SDS011;1810;48.720;9.094;2023-06-14T14:52:36;688.33;;;646.92;;
3591;SDS011;1810;48.720;9.094;2023-06-14T14:55:05;706.88;;;664.35;;
3591;SDS011;1810;48.720;9.094;2023-06-14T14:57:34;719.30;;;675.00;;
3591;SDS011;1810;48.720;9.094;2023-06-14T15:00:04;702.83;;;659.60;;
3591;SDS011;1810;48.720;9.094;2023-06-14T15:02:34;739.83;;;693.38;;
3591;SDS011;1810;48.720;9.094;2023-06-14T15:05:02;755.13;;;706.60;;
3591;SDS011;1810;48.720;9.094;2023-06-14T15:07:31;751.83;;;704.42;;
3591;SDS011;1810;48.720;9.094;2023-06-14T15:10:01;735.95;;;689.05;;
3591;SDS011;1810;48.720;9.094;2023-06-14T15:12:31;734.85;;;689.03;;
3591;SDS011;1810;48.720;9.094;2023-06-14T15:14:59;737.25;;;690.63;;
3591;SDS011;1810;48.720;9.094;2023-06-14T15:17:28;775.08;;;725.03;;
3591;SDS011;1810;48.720;9.094;2023-06-14T15:20:02;880.03;;;815.47;;
3591;SDS011;1810;48.720;9.094;2023-06-14T15:22:32;850.25;;;792.67;;
3591;SDS011;1810;48.720;9.094;2023-06-14T15:25:03;810.80;;;757.30;;
3591;SDS011;1810;48.720;9.094;2023-06-14T15:27:32;744.35;;;696.42;;
3591;SDS011;1810;48.720;9.094;2023-06-14T15:30:00;776.70;;;726.25;;
3591;SDS011;1810;48.720;9.094;2023-06-14T15:32:29;775.63;;;725.17;;
3591;SDS011;1810;48.720;9.094;2023-06-14T15:34:58;768.67;;;718.65;;
3591;SDS011;1810;48.720;9.094;2023-06-14T15:37:26;785.58;;;734.22;;
3591;SDS011;1810;48.720;9.094;2023-06-14T15:39:57;766.03;;;716.72;;
3591;SDS011;1810;48.720;9.094;2023-06-14T15:42:27;807.05;;;754.13;;
3591;SDS011;1810;48.720;9.094;2023-06-14T15:44:56;758.33;;;708.90;;
3591;SDS011;1810;48.720;9.094;2023-06-14T15:47:24;770.58;;;720.85;;